X  Close Metar Aviation Weather Data     EHKD De Kooy Airport
Temperature
41°F Temperature
34°F Dewpoint
76% Humidity



Wind
17 MPH
27 KM/H
8 M/S
15 KTS



350°
N
Current Conditions

Rain Rain
Pressure 1010.84 (hPa) - 29.85 (inHg)
Visibility 6 (mile) - 9.7 (km)
Airport
Airport-code EHKD

Location: De Kooy Airport
Distance: 34 (mi)

Metar:
EHKD 240244Z AUTO 35015G25KT 300V030 9999 RA FEW015CB BKN025 OVC028 05/01 Q1011 BLU

Time: 24-04-2024 04:44 CEST